createdAt,value
2016-05-16T00:00:19.256Z,0
2016-05-16T00:01:25.556Z,0
2016-05-16T00:02:19.324Z,0
2016-05-16T00:03:25.295Z,0
2016-05-16T00:04:19.189Z,0
2016-05-16T00:05:25.550Z,0
2016-05-16T00:06:21.960Z,0
2016-05-16T00:07:22.259Z,0
2016-05-16T00:08:24.903Z,0
2016-05-16T00:09:22.374Z,0
2016-05-16T00:10:25.127Z,0
2016-05-16T00:11:21.910Z,0
2016-05-16T00:12:24.819Z,0
2016-05-16T00:13:22.151Z,0
2016-05-16T00:14:21.700Z,0
2016-05-16T00:15:21.344Z,0
2016-05-16T00:16:22.143Z,0
2016-05-16T00:17:21.552Z,0
2016-05-16T00:18:21.179Z,0
2016-05-16T00:19:21.447Z,0
2016-05-16T00:20:21.857Z,0
2016-05-16T00:21:24.344Z,0
2016-05-16T00:22:21.471Z,0
2016-05-16T00:23:18.427Z,0
2016-05-16T00:24:18.008Z,0
2016-05-16T00:25:21.183Z,0
2016-05-16T00:26:18.091Z,0
2016-05-16T00:27:23.891Z,0
2016-05-16T00:28:24.176Z,0
2016-05-16T00:29:20.615Z,0
2016-05-16T00:30:20.852Z,0
2016-05-16T00:31:23.823Z,0
2016-05-16T00:32:20.780Z,0
2016-05-16T00:33:20.907Z,0
2016-05-16T00:34:20.645Z,0
2016-05-16T00:35:23.662Z,0
2016-05-16T00:36:20.572Z,0
2016-05-16T00:37:20.528Z,0
2016-05-16T00:38:20.327Z,0
2016-05-16T00:39:20.361Z,0
2016-05-16T00:40:17.473Z,0
2016-05-16T00:41:20.148Z,0
2016-05-16T00:42:20.306Z,0
2016-05-16T00:43:17.169Z,0
2016-05-16T00:44:17.311Z,0
2016-05-16T00:45:16.783Z,0
2016-05-16T00:46:17.036Z,0
2016-05-16T00:47:19.992Z,0
2016-05-16T00:48:20.885Z,0
2016-05-16T00:49:16.575Z,0
2016-05-16T00:50:20.031Z,0
2016-05-16T00:51:25.643Z,0
2016-05-16T00:52:16.552Z,0
2016-05-16T00:53:19.711Z,0
2016-05-16T00:54:19.605Z,0
2016-05-16T00:55:25.779Z,0
2016-05-16T00:56:28.719Z,0
2016-05-16T00:57:16.566Z,0
2016-05-16T00:58:19.725Z,0
2016-05-16T00:59:28.429Z,0
2016-05-16T01:00:19.307Z,0
2016-05-16T01:01:25.139Z,0
2016-05-16T01:02:25.298Z,0
2016-05-16T01:03:21.988Z,0
2016-05-16T01:04:25.100Z,0
2016-05-16T01:05:25.087Z,0
2016-05-16T01:06:36.917Z,0
2016-05-16T01:07:22.202Z,0
2016-05-16T01:08:19.329Z,0
2016-05-16T01:09:16.051Z,0
2016-05-16T01:10:21.851Z,0
2016-05-16T01:11:19.525Z,0
2016-05-16T01:12:18.512Z,0
2016-05-16T01:13:21.625Z,0
2016-05-16T01:14:21.987Z,0
2016-05-16T01:15:27.755Z,0
2016-05-16T01:16:27.475Z,0
2016-05-16T01:17:24.541Z,0
2016-05-16T01:18:18.388Z,0
2016-05-16T01:19:27.391Z,0
2016-05-16T01:20:15.737Z,0
2016-05-16T01:21:18.255Z,0
2016-05-16T01:22:21.179Z,0
2016-05-16T01:23:24.152Z,0
2016-05-16T01:24:21.514Z,0
2016-05-16T01:25:18.250Z,0
2016-05-16T01:26:14.940Z,0
2016-05-16T01:27:20.944Z,0
2016-05-16T01:28:20.836Z,0
2016-05-16T01:29:20.996Z,0
2016-05-16T01:30:14.732Z,0
2016-05-16T01:31:17.891Z,0
2016-05-16T01:32:17.582Z,0
2016-05-16T01:33:20.663Z,0
2016-05-16T01:34:17.649Z,0
2016-05-16T01:35:14.401Z,0
2016-05-16T01:36:14.529Z,0
2016-05-16T01:37:14.221Z,0
2016-05-16T01:38:14.004Z,0
2016-05-16T01:39:17.459Z,0
2016-05-16T01:40:17.791Z,0
2016-05-16T01:41:13.997Z,0
2016-05-16T01:42:20.358Z,0
2016-05-16T01:43:17.049Z,0
2016-05-16T01:44:20.473Z,0
2016-05-16T01:45:13.882Z,0
2016-05-16T01:46:17.495Z,0
2016-05-16T01:47:23.075Z,0
2016-05-16T01:48:22.796Z,0
2016-05-16T01:49:16.581Z,0
2016-05-16T01:50:25.942Z,0
2016-05-16T01:51:13.772Z,0
2016-05-16T01:52:21.223Z,0
2016-05-16T01:53:19.656Z,0
2016-05-16T01:54:16.651Z,0
2016-05-16T01:55:16.914Z,0
2016-05-16T01:56:13.765Z,0
2016-05-16T01:57:13.407Z,0
2016-05-16T01:58:22.738Z,0
2016-05-16T01:59:22.348Z,0
2016-05-16T02:00:16.490Z,0
2016-05-16T02:01:16.954Z,0
2016-05-16T02:02:16.416Z,0
2016-05-16T02:03:19.908Z,0
2016-05-16T02:04:19.291Z,0
2016-05-16T02:05:22.799Z,0
2016-05-16T02:06:22.148Z,0
2016-05-16T02:07:19.309Z,0
2016-05-16T02:08:22.110Z,0
2016-05-16T02:09:12.974Z,0
2016-05-16T02:10:19.276Z,0
2016-05-16T02:11:15.905Z,0
2016-05-16T02:12:18.924Z,0
2016-05-16T02:13:12.864Z,0
2016-05-16T02:14:15.587Z,0
2016-05-16T02:15:12.809Z,0
2016-05-16T02:16:15.656Z,0
2016-05-16T02:17:13.111Z,0
2016-05-16T02:18:15.724Z,0
2016-05-16T02:19:18.507Z,0
2016-05-16T02:20:16.228Z,0
2016-05-16T02:21:12.388Z,0
2016-05-16T02:22:12.359Z,0
2016-05-16T02:23:15.861Z,0
2016-05-16T02:24:12.240Z,0
2016-05-16T02:25:12.180Z,0
2016-05-16T02:26:12.120Z,0
2016-05-16T02:27:15.247Z,0
2016-05-16T02:28:15.094Z,0
2016-05-16T02:29:14.956Z,0
2016-05-16T02:30:14.897Z,0
2016-05-16T02:31:17.977Z,0
2016-05-16T02:32:12.058Z,0
2016-05-16T02:33:11.935Z,0
2016-05-16T02:34:11.720Z,0
2016-05-16T02:35:14.503Z,0
2016-05-16T02:36:11.272Z,0
2016-05-16T02:37:20.430Z,0
2016-05-16T02:38:14.902Z,0
2016-05-16T02:39:14.483Z,0
2016-05-16T02:40:17.924Z,0
2016-05-16T02:41:20.316Z,0
2016-05-16T02:42:17.193Z,0
2016-05-16T02:43:17.431Z,0
2016-05-16T02:44:14.168Z,0
2016-05-16T02:45:14.171Z,0
2016-05-16T02:46:22.954Z,0
2016-05-16T02:47:17.099Z,0
2016-05-16T02:48:13.976Z,0
2016-05-16T02:49:16.995Z,0
2016-05-16T02:50:11.043Z,0
2016-05-16T02:51:19.734Z,0
2016-05-16T02:52:10.611Z,0
2016-05-16T02:53:19.943Z,0
2016-05-16T02:54:13.633Z,0
2016-05-16T02:55:13.854Z,0
2016-05-16T02:56:13.528Z,0
2016-05-16T02:57:16.344Z,0
2016-05-16T02:58:16.362Z,0
2016-05-16T02:59:10.615Z,0
2016-05-16T03:00:13.164Z,0
2016-05-16T03:01:16.105Z,0
2016-05-16T03:02:16.248Z,0
2016-05-16T03:03:13.203Z,0
2016-05-16T03:04:19.378Z,0
2016-05-16T03:05:13.443Z,0
2016-05-16T03:06:16.274Z,0
2016-05-16T03:07:12.793Z,0
2016-05-16T03:08:10.405Z,0
2016-05-16T03:09:18.719Z,0
2016-05-16T03:10:13.019Z,0
2016-05-16T03:11:12.882Z,0
2016-05-16T03:12:18.541Z,0
2016-05-16T03:13:12.652Z,0
2016-05-16T03:14:12.608Z,0
2016-05-16T03:15:09.626Z,0
2016-05-16T03:16:12.488Z,0
2016-05-16T03:17:12.320Z,0
2016-05-16T03:18:09.385Z,0
2016-05-16T03:19:12.387Z,0
2016-05-16T03:20:09.218Z,0
2016-05-16T03:21:09.409Z,0
2016-05-16T03:22:12.176Z,0
2016-05-16T03:23:09.208Z,0
2016-05-16T03:24:12.698Z,0
2016-05-16T03:25:15.217Z,0
2016-05-16T03:26:12.359Z,0
2016-05-16T03:27:08.750Z,0
2016-05-16T03:28:24.208Z,0
2016-05-16T03:29:08.802Z,0
2016-05-16T03:30:11.636Z,0
2016-05-16T03:31:14.717Z,0
2016-05-16T03:32:14.953Z,0
2016-05-16T03:33:11.597Z,0
2016-05-16T03:34:14.584Z,0
2016-05-16T03:35:14.977Z,0
2016-05-16T03:36:14.542Z,0
2016-05-16T03:37:15.670Z,0
2016-05-16T03:38:26.766Z,0
2016-05-16T03:39:11.129Z,0
2016-05-16T03:40:11.053Z,0
2016-05-16T03:41:20.243Z,0
2016-05-16T03:42:17.121Z,0
2016-05-16T03:43:10.921Z,0
2016-05-16T03:44:11.002Z,0
2016-05-16T03:45:11.004Z,0
2016-05-16T03:46:13.819Z,0
2016-05-16T03:47:13.885Z,0
2016-05-16T03:48:13.715Z,0
2016-05-16T03:49:10.593Z,0
2016-05-16T03:50:07.921Z,0
2016-05-16T03:51:11.254Z,0
2016-05-16T03:52:07.582Z,0
2016-05-16T03:53:13.385Z,0
2016-05-16T03:54:16.700Z,0
2016-05-16T03:55:10.343Z,5
2016-05-16T03:56:16.393Z,5
2016-05-16T03:57:10.178Z,5
2016-05-16T03:58:10.508Z,5
2016-05-16T03:59:10.229Z,5
2016-05-16T04:00:13.060Z,5
2016-05-16T04:01:10.328Z,5
2016-05-16T04:02:13.050Z,5
2016-05-16T04:03:07.191Z,5
2016-05-16T04:04:10.477Z,5
2016-05-16T04:05:15.949Z,5
2016-05-16T04:06:10.233Z,5
2016-05-16T04:07:10.408Z,5
2016-05-16T04:08:09.439Z,5
2016-05-16T04:09:06.707Z,5
2016-05-16T04:10:06.694Z,5
2016-05-16T04:11:06.805Z,5
2016-05-16T04:12:09.558Z,5
2016-05-16T04:13:12.735Z,10
2016-05-16T04:14:07.157Z,10
2016-05-16T04:15:12.476Z,10
2016-05-16T04:16:09.397Z,10
2016-05-16T04:17:09.682Z,10
2016-05-16T04:18:09.246Z,10
2016-05-16T04:19:24.079Z,10
2016-05-16T04:20:13.410Z,10
2016-05-16T04:21:09.239Z,10
2016-05-16T04:22:06.210Z,15
2016-05-16T04:23:13.403Z,15
2016-05-16T04:24:12.000Z,15
2016-05-16T04:25:14.706Z,15
2016-05-16T04:26:11.833Z,15
2016-05-16T04:27:17.820Z,15
2016-05-16T04:28:11.604Z,15
2016-05-16T04:29:08.651Z,15
2016-05-16T04:30:14.672Z,15
2016-05-16T04:31:12.034Z,15
2016-05-16T04:32:11.521Z,15
2016-05-16T04:33:08.442Z,20
2016-05-16T04:34:08.242Z,20
2016-05-16T04:35:11.248Z,15
2016-05-16T04:36:14.344Z,15
2016-05-16T04:37:08.250Z,15
2016-05-16T04:38:11.444Z,15
2016-05-16T04:39:08.913Z,15
2016-05-16T04:40:08.275Z,15
2016-05-16T04:41:07.918Z,15
2016-05-16T04:42:14.252Z,20
2016-05-16T04:43:14.457Z,20
2016-05-16T04:44:04.847Z,20
2016-05-16T04:45:04.804Z,20
2016-05-16T04:46:05.196Z,20
2016-05-16T04:47:13.937Z,20
2016-05-16T04:48:11.580Z,20
2016-05-16T04:49:08.018Z,20
2016-05-16T04:50:10.582Z,20
2016-05-16T04:51:07.851Z,20
2016-05-16T04:52:10.650Z,20
2016-05-16T04:53:13.249Z,20
2016-05-16T04:54:07.484Z,25
2016-05-16T04:55:07.315Z,25
2016-05-16T04:56:07.286Z,25
2016-05-16T04:57:07.179Z,25
2016-05-16T04:58:04.120Z,25
2016-05-16T04:59:06.903Z,25
2016-05-16T05:00:04.078Z,25
2016-05-16T05:01:07.143Z,25
2016-05-16T05:02:07.131Z,25
2016-05-16T05:03:03.695Z,25
2016-05-16T05:04:06.855Z,25
2016-05-16T05:05:04.122Z,25
2016-05-16T05:06:06.563Z,30
2016-05-16T05:07:06.878Z,30
2016-05-16T05:08:03.600Z,30
2016-05-16T05:09:06.305Z,30
2016-05-16T05:10:09.511Z,30
2016-05-16T05:11:03.295Z,30
2016-05-16T05:12:10.844Z,30
2016-05-16T05:13:15.257Z,30
2016-05-16T05:14:09.741Z,30
2016-05-16T05:15:06.275Z,30
2016-05-16T05:16:03.013Z,30
2016-05-16T05:17:08.827Z,35
2016-05-16T05:18:13.473Z,35
2016-05-16T05:19:12.288Z,40
2016-05-16T05:20:03.085Z,40
2016-05-16T05:21:11.791Z,40
2016-05-16T05:22:11.731Z,40
2016-05-16T05:23:03.093Z,40
2016-05-16T05:24:14.771Z,40
2016-05-16T05:25:05.755Z,40
2016-05-16T05:26:07.414Z,40
2016-05-16T05:27:09.260Z,40
2016-05-16T05:28:05.512Z,40
2016-05-16T05:29:11.703Z,40
2016-05-16T05:30:08.284Z,40
2016-05-16T05:31:08.598Z,40
2016-05-16T05:32:05.492Z,40
2016-05-16T05:33:05.495Z,45
2016-05-16T05:34:08.232Z,45
2016-05-16T05:35:02.204Z,45
2016-05-16T05:36:14.177Z,45
2016-05-16T05:37:08.099Z,45
2016-05-16T05:38:05.025Z,50
2016-05-16T05:39:04.995Z,50
2016-05-16T05:40:04.936Z,50
2016-05-16T05:41:05.391Z,50
2016-05-16T05:42:10.894Z,50
2016-05-16T05:43:04.615Z,50
2016-05-16T05:44:10.572Z,50
2016-05-16T05:45:01.543Z,50
2016-05-16T05:46:01.468Z,50
2016-05-16T05:47:01.798Z,50
2016-05-16T05:48:04.520Z,50
2016-05-16T05:49:07.240Z,50
2016-05-16T05:50:08.166Z,50
2016-05-16T05:51:08.184Z,50
2016-05-16T05:52:07.171Z,50
2016-05-16T05:53:01.236Z,50
2016-05-16T05:54:01.177Z,55
2016-05-16T05:55:01.663Z,50
2016-05-16T05:56:04.166Z,50
2016-05-16T05:57:04.373Z,55
2016-05-16T05:58:01.062Z,55
2016-05-16T05:59:00.940Z,60
2016-05-16T06:00:03.942Z,65
2016-05-16T06:01:04.039Z,65
2016-05-16T06:02:03.761Z,65
2016-05-16T06:03:00.623Z,65
2016-05-16T06:04:10.328Z,70
2016-05-16T06:05:06.706Z,70
2016-05-16T06:06:04.147Z,65
2016-05-16T06:07:06.367Z,70
2016-05-16T06:08:03.464Z,70
2016-05-16T06:09:03.998Z,70
2016-05-16T06:10:03.344Z,70
2016-05-16T06:11:06.191Z,70
2016-05-16T06:12:03.474Z,75
2016-05-16T06:13:06.556Z,70
2016-05-16T06:14:00.027Z,70
2016-05-16T06:15:06.358Z,70
2016-05-16T06:16:06.079Z,70
2016-05-16T06:17:03.035Z,75
2016-05-16T06:18:06.006Z,75
2016-05-16T06:19:11.899Z,75
2016-05-16T06:20:00.185Z,75
2016-05-16T06:21:06.062Z,75
2016-05-16T06:22:05.643Z,75
2016-05-16T06:23:05.567Z,75
2016-05-16T06:24:02.882Z,75
2016-05-16T06:25:05.479Z,75
2016-05-16T06:26:05.606Z,70
2016-05-16T06:27:05.531Z,70
2016-05-16T06:28:00.831Z,70
2016-05-16T06:28:59.379Z,70
2016-05-16T06:30:05.023Z,70
2016-05-16T06:31:02.276Z,70
2016-05-16T06:32:02.622Z,65
2016-05-16T06:32:59.673Z,65
2016-05-16T06:34:02.127Z,65
2016-05-16T06:35:02.568Z,70
2016-05-16T06:36:11.228Z,70
2016-05-16T06:37:05.011Z,70
2016-05-16T06:38:05.279Z,75
2016-05-16T06:39:04.719Z,75
2016-05-16T06:39:58.800Z,75
2016-05-16T06:40:58.741Z,75
2016-05-16T06:42:01.556Z,80
2016-05-16T06:43:02.527Z,80
2016-05-16T06:43:58.420Z,80
2016-05-16T06:44:58.422Z,90
2016-05-16T06:46:01.504Z,85
2016-05-16T06:47:01.772Z,90
2016-05-16T06:47:58.650Z,85
2016-05-16T06:49:01.388Z,90
2016-05-16T06:50:10.546Z,80
2016-05-16T06:51:01.346Z,80
2016-05-16T06:52:04.427Z,75
2016-05-16T06:52:58.179Z,75
2016-05-16T06:54:01.072Z,75
2016-05-16T06:55:07.262Z,70
2016-05-16T06:55:58.171Z,70
2016-05-16T06:56:57.924Z,70
2016-05-16T06:57:57.912Z,70
2016-05-16T06:58:57.695Z,75
2016-05-16T07:00:06.870Z,75
2016-05-16T07:01:03.731Z,80
2016-05-16T07:01:57.625Z,80
2016-05-16T07:03:04.112Z,80
2016-05-16T07:04:00.427Z,85
2016-05-16T07:05:06.712Z,90
2016-05-16T07:06:00.776Z,95
2016-05-16T07:07:00.606Z,95
2016-05-16T07:08:01.642Z,95
2016-05-16T07:09:03.487Z,95
2016-05-16T07:10:00.256Z,100
2016-05-16T07:11:00.414Z,100
2016-05-16T07:12:07.605Z,100
2016-05-16T07:13:03.217Z,105
2016-05-16T07:13:56.908Z,105
2016-05-16T07:15:00.207Z,105
2016-05-16T07:15:59.944Z,105
2016-05-16T07:16:59.947Z,105
2016-05-16T07:18:02.058Z,100
2016-05-16T07:19:02.811Z,100
2016-05-16T07:20:03.266Z,95
2016-05-16T07:21:06.113Z,95
2016-05-16T07:22:02.632Z,95
2016-05-16T07:23:05.025Z,90
2016-05-16T07:23:59.607Z,85
2016-05-16T07:24:56.468Z,85
2016-05-16T07:25:56.440Z,90
2016-05-16T07:26:59.239Z,95
2016-05-16T07:27:58.804Z,100
2016-05-16T07:28:56.479Z,110
2016-05-16T07:29:59.231Z,115
2016-05-16T07:30:56.360Z,115
2016-05-16T07:31:59.081Z,115
2016-05-16T07:33:00.895Z,110
2016-05-16T07:34:01.726Z,115
2016-05-16T07:34:56.026Z,120
2016-05-16T07:35:56.217Z,125
2016-05-16T07:36:58.906Z,125
2016-05-16T07:37:58.659Z,130
2016-05-16T07:38:59.006Z,135
2016-05-16T07:39:59.275Z,135
2016-05-16T07:40:55.699Z,130
2016-05-16T07:42:01.888Z,135
2016-05-16T07:42:55.595Z,140
2016-05-16T07:43:55.316Z,135
2016-05-16T07:44:55.288Z,135
2016-05-16T07:45:55.430Z,135
2016-05-16T07:47:01.730Z,140
2016-05-16T07:48:55.094Z,140
2016-05-16T07:49:58.505Z,140
2016-05-16T07:50:55.663Z,140
2016-05-16T07:52:01.338Z,135
2016-05-16T07:52:58.043Z,140
2016-05-16T07:53:55.390Z,140
2016-05-16T07:54:54.815Z,140
2016-05-16T07:55:57.895Z,140
2016-05-16T07:56:57.866Z,140
2016-05-16T07:57:54.993Z,145
2016-05-16T07:58:57.747Z,150
2016-05-16T07:59:57.891Z,150
2016-05-16T08:00:54.471Z,150
2016-05-16T08:01:54.834Z,150
2016-05-16T08:02:54.539Z,145
2016-05-16T08:03:54.479Z,150
2016-05-16T08:04:57.434Z,150
2016-05-16T08:05:57.297Z,150
2016-05-16T08:07:03.409Z,155
2016-05-16T08:07:58.756Z,155
2016-05-16T08:08:54.445Z,160
2016-05-16T08:09:58.136Z,155
2016-05-16T08:11:00.576Z,155
2016-05-16T08:12:00.110Z,150
2016-05-16T08:12:54.472Z,145
2016-05-16T08:13:57.193Z,140
2016-05-16T08:14:53.962Z,130
2016-05-16T08:15:53.887Z,130
2016-05-16T08:16:59.374Z,130
2016-05-16T08:17:53.814Z,130
2016-05-16T08:18:54.441Z,125
2016-05-16T08:19:53.522Z,125
2016-05-16T08:21:03.275Z,130
2016-05-16T08:21:59.402Z,135
2016-05-16T08:23:20.939Z,115
2016-05-16T08:23:56.189Z,115
2016-05-16T08:24:56.146Z,125
2016-05-16T08:25:53.382Z,140
2016-05-16T08:26:53.182Z,140
2016-05-16T08:27:53.121Z,140
2016-05-16T08:28:56.281Z,145
2016-05-16T08:29:56.095Z,140
2016-05-16T08:30:56.176Z,145
2016-05-16T08:31:56.336Z,145
2016-05-16T08:32:56.042Z,135
2016-05-16T08:33:59.185Z,120
2016-05-16T08:34:52.765Z,120
2016-05-16T08:35:52.706Z,110
2016-05-16T08:36:58.834Z,105
2016-05-16T08:37:55.758Z,110
2016-05-16T08:38:56.386Z,110
2016-05-16T08:39:53.061Z,100
2016-05-16T08:40:55.625Z,95
2016-05-16T08:41:53.347Z,95
2016-05-16T08:42:55.537Z,95
2016-05-16T08:43:55.461Z,105
2016-05-16T08:44:55.621Z,125
2016-05-16T08:45:55.372Z,135
2016-05-16T08:46:52.188Z,150
2016-05-16T08:47:58.911Z,140
2016-05-16T08:48:58.225Z,130
2016-05-16T08:49:55.025Z,135
2016-05-16T08:50:58.590Z,170
2016-05-16T08:51:54.983Z,165
2016-05-16T08:52:52.408Z,170
2016-05-16T08:54:01.051Z,185
2016-05-16T08:54:57.772Z,160
2016-05-16T08:55:57.947Z,170
2016-05-16T08:56:57.653Z,175
2016-05-16T08:58:02.734Z,190
2016-05-16T08:58:54.752Z,185
2016-05-16T08:59:54.692Z,170
2016-05-16T09:00:51.492Z,175
2016-05-16T09:01:54.837Z,175
2016-05-16T09:02:51.715Z,185
2016-05-16T09:03:54.797Z,175
2016-05-16T09:04:54.393Z,180
2016-05-16T09:05:53.021Z,175
2016-05-16T09:06:54.195Z,160
2016-05-16T09:07:57.104Z,160
2016-05-16T09:08:51.217Z,160
2016-05-16T09:09:51.141Z,145
2016-05-16T09:10:50.972Z,145
2016-05-16T09:11:50.912Z,160
2016-05-16T09:12:51.165Z,190
2016-05-16T09:13:50.667Z,200
2016-05-16T09:14:53.811Z,200
2016-05-16T09:15:51.094Z,195
2016-05-16T09:16:50.816Z,180
2016-05-16T09:17:53.755Z,170
2016-05-16T09:18:56.774Z,160
2016-05-16T09:19:50.669Z,165
2016-05-16T09:20:50.796Z,140
2016-05-16T09:21:50.549Z,120
2016-05-16T09:22:53.535Z,125
2016-05-16T09:23:50.460Z,145
2016-05-16T09:24:50.432Z,135
2016-05-16T09:25:50.403Z,140
2016-05-16T09:26:53.155Z,165
2016-05-16T09:27:53.174Z,170
2016-05-16T09:28:53.208Z,160
2016-05-16T09:29:50.554Z,165
2016-05-16T09:30:53.151Z,170
2016-05-16T09:31:50.309Z,155
2016-05-16T09:32:49.874Z,150
2016-05-16T09:33:50.002Z,135
2016-05-16T09:34:52.959Z,140
2016-05-16T09:35:56.352Z,140
2016-05-16T09:36:49.667Z,130
2016-05-16T09:37:53.013Z,130
2016-05-16T09:38:49.719Z,120
2016-05-16T09:39:52.534Z,105
2016-05-16T09:40:55.850Z,115
2016-05-16T09:41:52.273Z,110
2016-05-16T09:42:49.386Z,125
2016-05-16T09:43:49.654Z,150
2016-05-16T09:44:49.501Z,170
2016-05-16T09:45:52.597Z,195
2016-05-16T09:46:52.022Z,190
2016-05-16T09:47:52.289Z,180
2016-05-16T09:48:49.121Z,185
2016-05-16T09:49:58.014Z,185
2016-05-16T09:50:51.891Z,200
2016-05-16T09:51:49.567Z,200
2016-05-16T09:52:52.147Z,200
2016-05-16T09:53:48.853Z,195
2016-05-16T09:54:51.980Z,175
2016-05-16T09:55:49.077Z,150
2016-05-16T09:56:51.830Z,140
2016-05-16T09:57:49.302Z,140
2016-05-16T09:58:48.727Z,145
2016-05-16T09:59:48.604Z,155
2016-05-16T10:00:48.857Z,145
2016-05-16T10:01:48.781Z,145
2016-05-16T10:03:00.471Z,140
2016-05-16T10:03:48.457Z,140
2016-05-16T10:04:51.445Z,120
2016-05-16T10:05:51.385Z,115
2016-05-16T10:06:51.341Z,115
2016-05-16T10:07:51.282Z,110
2016-05-16T10:08:48.081Z,85
2016-05-16T10:09:54.474Z,65
2016-05-16T10:10:51.226Z,60
2016-05-16T10:11:55.886Z,60
2016-05-16T10:12:48.232Z,65
2016-05-16T10:13:48.860Z,65
2016-05-16T10:15:06.926Z,85
2016-05-16T10:15:50.647Z,85
2016-05-16T10:16:51.322Z,85
2016-05-16T10:17:50.667Z,85
2016-05-16T10:18:50.764Z,85
2016-05-16T10:19:50.907Z,85
2016-05-16T10:20:52.020Z,85
2016-05-16T10:21:56.647Z,85
2016-05-16T10:22:51.181Z,85
2016-05-16T10:23:47.481Z,90
2016-05-16T10:24:53.499Z,90
2016-05-16T10:25:56.127Z,90
2016-05-16T10:26:47.191Z,115
2016-05-16T10:27:47.476Z,90
2016-05-16T10:28:50.447Z,90
2016-05-16T10:29:47.747Z,85
2016-05-16T10:30:50.203Z,90
2016-05-16T10:31:52.768Z,95
2016-05-16T10:32:46.724Z,105
2016-05-16T10:33:53.367Z,120
2016-05-16T10:34:55.948Z,135
2016-05-16T10:35:46.731Z,135
2016-05-16T10:36:52.876Z,145
2016-05-16T10:37:49.643Z,185
2016-05-16T10:38:52.786Z,205
2016-05-16T10:39:55.524Z,185
2016-05-16T10:40:52.637Z,160
2016-05-16T10:41:58.623Z,110
2016-05-16T10:42:49.392Z,95
2016-05-16T10:43:49.331Z,85
2016-05-16T10:44:52.506Z,70
2016-05-16T10:45:49.070Z,60
2016-05-16T10:46:52.527Z,60
2016-05-16T10:47:49.686Z,60
2016-05-16T10:48:49.236Z,70
2016-05-16T10:49:58.035Z,75
2016-05-16T10:50:49.959Z,75
2016-05-16T10:51:49.086Z,70
2016-05-16T10:52:49.059Z,75
2016-05-16T10:53:45.983Z,75
2016-05-16T10:54:48.939Z,85
2016-05-16T10:55:45.739Z,95
2016-05-16T10:56:48.944Z,100
2016-05-16T10:57:46.143Z,100
2016-05-16T10:58:45.678Z,105
2016-05-16T10:59:45.696Z,105
2016-05-16T11:00:45.839Z,90
2016-05-16T11:01:54.685Z,75
2016-05-16T11:02:45.631Z,80
2016-05-16T11:03:48.682Z,100
2016-05-16T11:04:45.623Z,120
2016-05-16T11:05:46.987Z,125
2016-05-16T11:06:51.507Z,135
2016-05-16T11:07:51.657Z,130
2016-05-16T11:08:54.634Z,155
2016-05-16T11:09:48.642Z,195
2016-05-16T11:10:45.370Z,225
2016-05-16T11:11:48.160Z,210
2016-05-16T11:12:45.400Z,205
2016-05-16T11:13:51.622Z,200
2016-05-16T11:14:45.316Z,185
2016-05-16T11:15:48.257Z,170
2016-05-16T11:16:48.435Z,170
2016-05-16T11:17:47.985Z,170
2016-05-16T11:18:45.332Z,170
2016-05-16T11:19:50.915Z,150
2016-05-16T11:20:45.745Z,150
2016-05-16T11:21:44.812Z,155
2016-05-16T11:22:48.269Z,160
2016-05-16T11:23:51.505Z,155
2016-05-16T11:24:53.931Z,165
2016-05-16T11:25:53.792Z,150
2016-05-16T11:26:44.811Z,130
2016-05-16T11:27:47.752Z,130
2016-05-16T11:28:44.489Z,115
2016-05-16T11:29:44.428Z,120
2016-05-16T11:30:50.745Z,120
2016-05-16T11:31:50.497Z,95
2016-05-16T11:32:44.672Z,95
2016-05-16T11:33:44.112Z,100
2016-05-16T11:34:50.364Z,115
2016-05-16T11:35:50.149Z,115
2016-05-16T11:36:50.260Z,125
2016-05-16T11:37:47.263Z,125
2016-05-16T11:38:47.141Z,120
2016-05-16T11:39:44.128Z,115
2016-05-16T11:40:46.896Z,105
2016-05-16T11:41:44.024Z,105
2016-05-16T11:42:46.963Z,105
2016-05-16T11:43:47.279Z,105
2016-05-16T11:44:43.688Z,105
2016-05-16T11:45:43.503Z,105
2016-05-16T11:46:43.632Z,105
2016-05-16T11:47:43.727Z,115
2016-05-16T11:48:43.668Z,125
2016-05-16T11:49:43.608Z,145
2016-05-16T11:50:53.251Z,160
2016-05-16T11:51:43.238Z,175
2016-05-16T11:52:43.490Z,210
2016-05-16T11:53:46.634Z,200
2016-05-16T11:54:52.418Z,205
2016-05-16T11:55:49.156Z,220
2016-05-16T11:56:46.486Z,190
2016-05-16T11:57:43.270Z,145
2016-05-16T11:58:49.053Z,125
2016-05-16T11:59:42.979Z,105
2016-05-16T12:00:45.934Z,105
2016-05-16T12:01:49.031Z,130
2016-05-16T12:02:46.018Z,120
2016-05-16T12:03:45.927Z,120
2016-05-16T12:04:43.227Z,145
2016-05-16T12:05:42.666Z,140
2016-05-16T12:06:45.966Z,125
2016-05-16T12:07:43.125Z,125
2016-05-16T12:08:42.738Z,150
2016-05-16T12:09:45.802Z,150
2016-05-16T12:10:45.664Z,140
2016-05-16T12:11:48.621Z,125
2016-05-16T12:12:42.466Z,125
2016-05-16T12:13:48.704Z,120
2016-05-16T12:14:42.441Z,105
2016-05-16T12:15:45.491Z,105
2016-05-16T12:16:45.290Z,110
2016-05-16T12:17:45.277Z,115
2016-05-16T12:18:42.076Z,120
2016-05-16T12:19:41.985Z,135
2016-05-16T12:20:45.519Z,135
2016-05-16T12:21:45.053Z,130
2016-05-16T12:22:50.854Z,130
2016-05-16T12:23:42.340Z,140
2016-05-16T12:24:44.765Z,155
2016-05-16T12:25:48.064Z,165
2016-05-16T12:26:44.629Z,165
2016-05-16T12:27:44.804Z,155
2016-05-16T12:28:44.744Z,150
2016-05-16T12:29:41.669Z,145
2016-05-16T12:30:41.875Z,125
2016-05-16T12:31:41.425Z,105
2016-05-16T12:32:41.598Z,100
2016-05-16T12:33:47.773Z,90
2016-05-16T12:34:42.260Z,85
2016-05-16T12:35:41.981Z,75
2016-05-16T12:36:44.718Z,75
2016-05-16T12:37:41.253Z,70
2016-05-16T12:38:44.272Z,65
2016-05-16T12:39:53.399Z,60
2016-05-16T12:40:44.167Z,60
2016-05-16T12:41:44.263Z,60
2016-05-16T12:42:43.922Z,60
2016-05-16T12:43:41.518Z,65
2016-05-16T12:44:46.990Z,70
2016-05-16T12:45:43.883Z,75
2016-05-16T12:46:43.886Z,85
2016-05-16T12:47:43.842Z,100
2016-05-16T12:48:49.798Z,125
2016-05-16T12:49:41.238Z,135
2016-05-16T12:50:49.912Z,145
2016-05-16T12:51:46.432Z,160
2016-05-16T12:52:46.542Z,170
2016-05-16T12:53:43.515Z,180
2016-05-16T12:54:43.518Z,200
2016-05-16T12:55:43.379Z,230
2016-05-16T12:56:40.444Z,245
2016-05-16T12:57:43.572Z,240
2016-05-16T12:58:42.934Z,255
2016-05-16T12:59:43.031Z,270
2016-05-16T13:00:46.768Z,265
2016-05-16T13:01:43.130Z,250
2016-05-16T13:02:39.976Z,250
2016-05-16T13:03:40.416Z,280
2016-05-16T13:04:45.950Z,290
2016-05-16T13:05:43.266Z,280
2016-05-16T13:06:39.690Z,265
2016-05-16T13:07:40.005Z,220
2016-05-16T13:08:45.774Z,185
2016-05-16T13:09:49.136Z,155
2016-05-16T13:10:48.513Z,160
2016-05-16T13:11:45.672Z,160
2016-05-16T13:12:42.862Z,170
2016-05-16T13:13:39.537Z,175
2016-05-16T13:14:39.461Z,195
2016-05-16T13:15:39.746Z,215
2016-05-16T13:16:39.421Z,230
2016-05-16T13:17:42.407Z,225
2016-05-16T13:18:42.488Z,220
2016-05-16T13:19:39.428Z,220
2016-05-16T13:20:40.087Z,230
2016-05-16T13:21:42.402Z,210
2016-05-16T13:22:41.968Z,200
2016-05-16T13:23:48.079Z,185
2016-05-16T13:24:39.020Z,170
2016-05-16T13:25:38.820Z,170
2016-05-16T13:26:41.915Z,170
2016-05-16T13:27:38.700Z,155
2016-05-16T13:28:41.670Z,130
2016-05-16T13:29:44.643Z,110
2016-05-16T13:30:53.583Z,105
2016-05-16T13:31:47.539Z,105
2016-05-16T13:32:41.884Z,105
2016-05-16T13:33:41.591Z,110
2016-05-16T13:34:41.375Z,110
2016-05-16T13:35:41.189Z,110
2016-05-16T13:36:38.286Z,105
2016-05-16T13:37:44.648Z,115
2016-05-16T13:38:38.339Z,120
2016-05-16T13:39:38.138Z,125
2016-05-16T13:40:44.656Z,135
2016-05-16T13:41:44.081Z,145
2016-05-16T13:42:38.116Z,155
2016-05-16T13:43:41.071Z,175
2016-05-16T13:44:44.058Z,205
2016-05-16T13:45:43.999Z,240
2016-05-16T13:46:37.954Z,265
2016-05-16T13:47:44.128Z,285
2016-05-16T13:48:40.693Z,295
2016-05-16T13:49:40.869Z,300
2016-05-16T13:50:44.324Z,295
2016-05-16T13:51:43.764Z,295
2016-05-16T13:52:43.329Z,290
2016-05-16T13:53:40.535Z,270
2016-05-16T13:54:40.569Z,255
2016-05-16T13:55:40.353Z,235
2016-05-16T13:56:43.481Z,210
2016-05-16T13:57:37.265Z,200
2016-05-16T13:58:37.565Z,180
2016-05-16T13:59:40.379Z,190
2016-05-16T14:00:40.476Z,205
2016-05-16T14:01:37.447Z,220
2016-05-16T14:02:36.997Z,225
2016-05-16T14:03:40.108Z,235
2016-05-16T14:04:39.940Z,245
2016-05-16T14:05:36.881Z,255
2016-05-16T14:06:39.820Z,270
2016-05-16T14:07:36.933Z,275
2016-05-16T14:08:39.903Z,270
2016-05-16T14:09:37.047Z,275
2016-05-16T14:10:42.690Z,275
2016-05-16T14:11:46.177Z,280